Time;durP1;ratioP1;P1;durP2;ratioP2;P2;SDS_P1;SDS_P2;PMS_P1;PMS_P2;Temp;Humidity;BMP_temperature;BMP_pressure;BME280_temperature;BME280_humidity;BME280_pressure;Samples;Min_cycle;Max_cycle;Signal;HPM_P1;HPM_P2
2024/03/17 00:00:35;;;;;;;5.88;3.47;;;;;;;;;;2065731;28;20030;-43
2024/03/17 00:01:36;;;;;;;6.20;2.83;;;;;;;;;;2060262;28;20022;-44
2024/03/17 00:02:42;;;;;;;4.80;3.17;;;;;;;;;;2059094;28;20039;-44
2024/03/17 00:03:44;;;;;;;4.07;2.92;;;;;;;;;;2064884;28;20066;-42
2024/03/17 00:04:47;;;;;;;4.05;2.97;;;;;;;;;;2057093;28;20038;-45
2024/03/17 00:05:49;;;;;;;4.22;2.85;;;;;;;;;;2064908;28;20096;-43
2024/03/17 00:06:51;;;;;;;4.57;3.13;;;;;;;;;;2064637;28;20030;-44
2024/03/17 00:07:52;;;;;;;4.97;2.80;;;;;;;;;;2064817;28;20022;-43
2024/03/17 00:08:54;;;;;;;4.53;2.60;;;;;;;;;;2065640;28;20073;-43
2024/03/17 00:09:56;;;;;;;3.90;2.50;;;;;;;;;;2062846;28;20073;-42
2024/03/17 00:10:57;;;;;;;5.57;2.40;;;;;;;;;;2063413;28;20030;-44
2024/03/17 00:11:58;;;;;;;4.38;3.13;;;;;;;;;;2065616;28;20462;-44
2024/03/17 00:13:00;;;;;;;4.55;3.00;;;;;;;;;;2059949;28;20442;-42
2024/03/17 00:14:05;;;;;;;4.00;2.67;;;;;;;;;;2059555;28;20026;-44
2024/03/17 00:15:06;;;;;;;5.22;2.63;;;;;;;;;;2065746;28;20033;-43
2024/03/17 00:16:08;;;;;;;7.32;2.88;;;;;;;;;;2063942;28;20022;-44
2024/03/17 00:17:09;;;;;;;5.60;2.75;;;;;;;;;;2065375;28;20014;-43
2024/03/17 00:18:11;;;;;;;3.85;2.90;;;;;;;;;;2065309;28;20038;-44
2024/03/17 00:19:13;;;;;;;5.13;2.97;;;;;;;;;;2065167;28;20552;-44
2024/03/17 00:20:19;;;;;;;6.47;3.25;;;;;;;;;;2062201;28;20035;-43
2024/03/17 00:21:20;;;;;;;5.20;3.15;;;;;;;;;;2064257;28;20031;-43
2024/03/17 00:22:22;;;;;;;4.32;2.65;;;;;;;;;;2065266;28;20030;-43
2024/03/17 00:23:23;;;;;;;5.35;2.80;;;;;;;;;;2065603;28;20040;-45
2024/03/17 00:24:24;;;;;;;5.93;2.92;;;;;;;;;;2065435;28;20027;-42
2024/03/17 00:25:26;;;;;;;4.47;2.75;;;;;;;;;;2065116;28;20026;-42
2024/03/17 00:26:29;;;;;;;4.75;2.47;;;;;;;;;;2065679;28;20584;-43
2024/03/17 00:27:30;;;;;;;6.90;3.03;;;;;;;;;;2065602;28;20014;-44
2024/03/17 00:28:31;;;;;;;4.57;3.20;;;;;;;;;;2065603;28;20026;-44
2024/03/17 00:29:33;;;;;;;4.22;2.72;;;;;;;;;;2064683;28;20557;-45
2024/03/17 00:30:34;;;;;;;3.55;2.47;;;;;;;;;;2064274;28;20030;-44
2024/03/17 00:31:35;;;;;;;6.55;2.63;;;;;;;;;;2065433;28;20026;-45
2024/03/17 00:32:36;;;;;;;3.38;2.60;;;;;;;;;;2063797;28;20053;-44
2024/03/17 00:33:38;;;;;;;5.38;2.67;;;;;;;;;;2065246;28;20465;-44
2024/03/17 00:34:39;;;;;;;4.22;2.58;;;;;;;;;;2065611;28;20019;-43
2024/03/17 00:35:40;;;;;;;4.95;2.70;;;;;;;;;;2065403;28;20015;-45
2024/03/17 00:36:41;;;;;;;6.68;3.47;;;;;;;;;;2065347;28;20362;-44
2024/03/17 00:37:43;;;;;;;6.03;2.90;;;;;;;;;;2065468;28;20097;-44
2024/03/17 00:38:45;;;;;;;4.70;3.45;;;;;;;;;;2064941;28;20022;-50
2024/03/17 00:39:47;;;;;;;5.00;2.90;;;;;;;;;;2065553;28;20034;-48
2024/03/17 00:40:49;;;;;;;4.15;2.60;;;;;;;;;;2065364;28;20018;-49
2024/03/17 00:41:50;;;;;;;4.47;2.70;;;;;;;;;;2065426;28;20029;-50
2024/03/17 00:42:53;;;;;;;4.03;2.92;;;;;;;;;;2058346;28;20085;-50
2024/03/17 00:43:55;;;;;;;4.40;2.95;;;;;;;;;;2063414;28;20102;-50
2024/03/17 00:44:56;;;;;;;5.25;3.03;;;;;;;;;;2063221;28;20034;-49
2024/03/17 00:45:58;;;;;;;5.18;2.90;;;;;;;;;;2056917;28;20038;-50
2024/03/17 00:47:00;;;;;;;5.00;3.47;;;;;;;;;;2062879;28;20017;-51
2024/03/17 00:48:01;;;;;;;5.90;2.58;;;;;;;;;;2057526;28;20395;-49
2024/03/17 00:49:02;;;;;;;4.00;2.58;;;;;;;;;;2065480;28;20080;-49
2024/03/17 00:50:06;;;;;;;5.35;2.80;;;;;;;;;;2064481;28;20018;-49
2024/03/17 00:51:07;;;;;;;4.35;2.90;;;;;;;;;;2065429;28;20026;-49
2024/03/17 00:52:09;;;;;;;3.70;2.75;;;;;;;;;;2064547;28;20464;-49
2024/03/17 00:53:10;;;;;;;3.63;2.35;;;;;;;;;;2065018;28;20031;-51
2024/03/17 00:54:12;;;;;;;3.78;2.60;;;;;;;;;;2065136;28;20046;-49
2024/03/17 00:55:14;;;;;;;5.22;2.60;;;;;;;;;;2063758;28;20374;-48
2024/03/17 00:56:15;;;;;;;6.18;2.88;;;;;;;;;;2065431;28;20097;-49
2024/03/17 00:57:17;;;;;;;4.32;2.70;;;;;;;;;;2065165;28;20085;-50
2024/03/17 00:58:19;;;;;;;4.38;2.63;;;;;;;;;;2063643;28;20498;-51
2024/03/17 00:59:20;;;;;;;4.85;2.70;;;;;;;;;;2065252;28;20031;-51
2024/03/17 01:00:22;;;;;;;4.20;2.90;;;;;;;;;;2062417;28;20097;-49
2024/03/17 01:01:24;;;;;;;4.75;2.88;;;;;;;;;;2065188;28;20106;-50
2024/03/17 01:02:26;;;;;;;3.40;2.30;;;;;;;;;;2065330;28;20026;-48
2024/03/17 01:03:28;;;;;;;3.75;2.60;;;;;;;;;;2061871;28;20053;-49
2024/03/17 01:04:29;;;;;;;5.05;2.70;;;;;;;;;;2064934;28;20022;-49
2024/03/17 01:05:31;;;;;;;5.80;3.40;;;;;;;;;;2064360;28;20034;-51
2024/03/17 01:06:32;;;;;;;4.63;2.80;;;;;;;;;;2064773;28;20065;-50
2024/03/17 01:07:34;;;;;;;4.88;3.20;;;;;;;;;;2064815;28;20035;-47
2024/03/17 01:08:35;;;;;;;5.32;2.90;;;;;;;;;;2058175;28;20030;-45
2024/03/17 01:09:36;;;;;;;3.28;2.58;;;;;;;;;;2058467;28;20363;-48
2024/03/17 01:10:39;;;;;;;5.07;2.85;;;;;;;;;;2056876;28;20034;-50
2024/03/17 01:11:40;;;;;;;6.00;2.90;;;;;;;;;;2065201;28;20022;-49
2024/03/17 01:12:41;;;;;;;3.22;2.72;;;;;;;;;;2064955;28;20018;-50
2024/03/17 01:13:43;;;;;;;4.60;3.03;;;;;;;;;;2065208;28;20027;-50
2024/03/17 01:14:44;;;;;;;7.50;3.20;;;;;;;;;;2065057;28;20015;-50
2024/03/17 01:15:46;;;;;;;3.80;2.70;;;;;;;;;;2058746;28;20070;-49
2024/03/17 01:16:47;;;;;;;4.60;2.78;;;;;;;;;;2062737;28;20023;-49
2024/03/17 01:17:48;;;;;;;3.95;2.78;;;;;;;;;;2062425;28;20669;-49
2024/03/17 01:18:49;;;;;;;3.70;3.13;;;;;;;;;;2065146;28;20030;-49
2024/03/17 01:19:51;;;;;;;5.03;3.15;;;;;;;;;;2064347;28;20026;-50
2024/03/17 01:20:52;;;;;;;5.50;3.38;;;;;;;;;;2063594;28;20034;-49
2024/03/17 01:21:54;;;;;;;5.97;2.85;;;;;;;;;;2065290;28;20019;-48
2024/03/17 01:22:55;;;;;;;5.05;3.15;;;;;;;;;;2063972;28;20022;-49
2024/03/17 01:23:56;;;;;;;4.70;2.65;;;;;;;;;;2064939;28;20030;-47
2024/03/17 01:24:58;;;;;;;5.28;3.30;;;;;;;;;;2065052;28;20057;-50
2024/03/17 01:26:00;;;;;;;3.70;2.83;;;;;;;;;;2063505;28;20084;-50
2024/03/17 01:27:01;;;;;;;5.93;2.85;;;;;;;;;;2055532;28;20053;-49
2024/03/17 01:28:03;;;;;;;3.42;2.67;;;;;;;;;;2056272;28;20515;-49
2024/03/17 01:29:04;;;;;;;3.40;2.80;;;;;;;;;;2060999;28;20484;-45
2024/03/17 01:30:05;;;;;;;3.83;2.67;;;;;;;;;;2062651;28;20025;-44
2024/03/17 01:31:07;;;;;;;3.88;3.20;;;;;;;;;;2063682;28;20026;-44
2024/03/17 01:32:08;;;;;;;5.00;2.97;;;;;;;;;;2064904;28;20014;-44
2024/03/17 01:33:11;;;;;;;4.22;2.65;;;;;;;;;;2065046;28;20476;-44
2024/03/17 01:34:13;;;;;;;3.80;2.90;;;;;;;;;;2064886;28;20035;-45
2024/03/17 01:35:14;;;;;;;5.50;2.65;;;;;;;;;;2063503;28;20029;-46
2024/03/17 01:36:15;;;;;;;5.47;2.78;;;;;;;;;;2057038;28;20098;-45
2024/03/17 01:37:17;;;;;;;4.15;2.92;;;;;;;;;;2058554;28;20409;-43
2024/03/17 01:38:18;;;;;;;4.63;2.78;;;;;;;;;;2057005;28;20031;-44
2024/03/17 01:39:21;;;;;;;4.57;3.05;;;;;;;;;;2064940;28;20025;-44
2024/03/17 01:40:22;;;;;;;5.90;2.83;;;;;;;;;;2064429;28;20480;-45
2024/03/17 01:41:23;;;;;;;4.90;2.97;;;;;;;;;;2064911;28;20022;-44
2024/03/17 01:42:25;;;;;;;4.85;3.15;;;;;;;;;;2063992;28;20022;-44
2024/03/17 01:43:27;;;;;;;4.57;3.25;;;;;;;;;;2064247;28;20022;-45
2024/03/17 01:44:29;;;;;;;3.90;2.78;;;;;;;;;;2065154;28;20431;-44
2024/03/17 01:45:34;;;;;;;4.70;3.13;;;;;;;;;;2061655;28;20015;-44
2024/03/17 01:46:35;;;;;;;4.93;3.13;;;;;;;;;;2064120;28;20034;-44
2024/03/17 01:47:36;;;;;;;3.45;2.55;;;;;;;;;;2064781;28;20037;-45
2024/03/17 01:48:38;;;;;;;4.60;2.92;;;;;;;;;;2064919;28;20133;-45
2024/03/17 01:49:40;;;;;;;3.58;2.92;;;;;;;;;;2064620;28;20100;-45
2024/03/17 01:50:42;;;;;;;4.25;2.85;;;;;;;;;;2064699;28;20033;-45
2024/03/17 01:51:45;;;;;;;6.28;2.83;;;;;;;;;;2064561;28;20029;-43
2024/03/17 01:52:47;;;;;;;3.95;2.85;;;;;;;;;;2064509;28;20011;-44
2024/03/17 01:53:49;;;;;;;5.78;3.10;;;;;;;;;;2064686;28;20034;-46
2024/03/17 01:54:50;;;;;;;5.45;2.92;;;;;;;;;;2064775;28;20018;-44
2024/03/17 01:55:53;;;;;;;4.55;3.20;;;;;;;;;;2063805;28;20461;-45
2024/03/17 01:56:54;;;;;;;5.30;3.05;;;;;;;;;;2059501;28;20478;-45
2024/03/17 01:57:56;;;;;;;3.88;2.78;;;;;;;;;;2058447;28;20049;-44
2024/03/17 01:58:59;;;;;;;4.78;3.15;;;;;;;;;;2056902;28;20101;-44
2024/03/17 02:00:00;;;;;;;4.32;2.92;;;;;;;;;;2062372;28;20102;-46
2024/03/17 02:01:04;;;;;;;6.45;2.80;;;;;;;;;;2064802;28;20022;-45
2024/03/17 02:02:05;;;;;;;4.22;2.80;;;;;;;;;;2064936;28;20041;-44
2024/03/17 02:03:10;;;;;;;4.50;2.83;;;;;;;;;;2064539;28;20094;-44
2024/03/17 02:04:11;;;;;;;4.80;2.63;;;;;;;;;;2064607;28;20037;-45
2024/03/17 02:05:13;;;;;;;4.57;2.90;;;;;;;;;;2057215;28;20031;-44
2024/03/17 02:06:14;;;;;;;4.60;2.55;;;;;;;;;;2060709;28;20030;-44
2024/03/17 02:07:16;;;;;;;3.95;2.83;;;;;;;;;;2064671;28;20050;-45
2024/03/17 02:08:18;;;;;;;4.93;3.10;;;;;;;;;;2064614;28;20034;-44
2024/03/17 02:09:20;;;;;;;4.25;3.10;;;;;;;;;;2064636;28;20034;-43
2024/03/17 02:10:21;;;;;;;3.38;2.58;;;;;;;;;;2057663;28;20039;-44
2024/03/17 02:11:26;;;;;;;6.15;3.20;;;;;;;;;;2056136;28;20030;-45
2024/03/17 02:12:28;;;;;;;4.45;2.65;;;;;;;;;;2050588;28;20105;-45
2024/03/17 02:13:29;;;;;;;4.53;2.80;;;;;;;;;;2064083;28;20057;-45
2024/03/17 02:14:31;;;;;;;4.72;2.63;;;;;;;;;;2064658;28;20045;-45
2024/03/17 02:15:32;;;;;;;5.80;3.33;;;;;;;;;;2060063;28;20389;-44
2024/03/17 02:16:34;;;;;;;5.18;3.00;;;;;;;;;;2064056;28;20068;-44
2024/03/17 02:17:35;;;;;;;4.18;2.90;;;;;;;;;;2064249;28;20034;-44
2024/03/17 02:18:36;;;;;;;4.85;2.45;;;;;;;;;;2064561;28;20419;-44
2024/03/17 02:19:38;;;;;;;4.60;2.92;;;;;;;;;;2064532;28;20064;-43
2024/03/17 02:20:55;;;;;;;3.80;2.60;;;;;;;;;;2063716;28;20025;-44
2024/03/17 02:21:56;;;;;;;3.60;2.63;;;;;;;;;;2064652;28;20405;-44
2024/03/17 02:22:58;;;;;;;4.22;3.22;;;;;;;;;;2062773;28;20102;-44
2024/03/17 02:23:59;;;;;;;6.03;2.88;;;;;;;;;;2064223;28;20018;-43
2024/03/17 02:25:00;;;;;;;5.40;3.42;;;;;;;;;;2064736;28;20369;-44
2024/03/17 02:26:01;;;;;;;4.53;2.72;;;;;;;;;;2064079;28;20110;-45
2024/03/17 02:27:04;;;;;;;6.75;2.97;;;;;;;;;;2064457;28;20030;-44
2024/03/17 02:28:05;;;;;;;6.32;3.17;;;;;;;;;;2064776;28;20402;-45
2024/03/17 02:29:06;;;;;;;5.57;3.05;;;;;;;;;;2064353;28;20026;-44
2024/03/17 02:30:09;;;;;;;4.28;2.80;;;;;;;;;;2059638;28;20030;-43
2024/03/17 02:31:10;;;;;;;4.78;3.08;;;;;;;;;;2064130;28;20030;-44
2024/03/17 02:32:12;;;;;;;4.85;2.83;;;;;;;;;;2064529;28;20038;-44
2024/03/17 02:33:13;;;;;;;6.10;3.35;;;;;;;;;;2064535;28;20089;-44
2024/03/17 02:34:15;;;;;;;4.60;3.55;;;;;;;;;;2064462;28;20382;-44
2024/03/17 02:35:16;;;;;;;4.07;2.92;;;;;;;;;;2063919;28;20026;-44
2024/03/17 02:36:17;;;;;;;5.20;3.15;;;;;;;;;;2064663;28;20061;-44
2024/03/17 02:37:19;;;;;;;4.80;3.03;;;;;;;;;;2064461;28;20496;-43
2024/03/17 02:39:33;;;;;;;4.30;2.78;;;;;;;;;;2064353;28;20034;-44
2024/03/17 02:39:41;;;;;;;4.93;3.20;;;;;;;;;;2064625;28;20026;-45
2024/03/17 02:40:43;;;;;;;5.80;3.55;;;;;;;;;;2064496;28;20504;-44
2024/03/17 02:41:45;;;;;;;3.63;2.80;;;;;;;;;;2059034;28;20014;-44
2024/03/17 02:42:47;;;;;;;4.57;2.90;;;;;;;;;;2064627;28;20038;-45
2024/03/17 02:43:48;;;;;;;4.43;3.20;;;;;;;;;;2064118;28;20092;-45
2024/03/17 02:44:49;;;;;;;4.43;2.78;;;;;;;;;;2059341;28;20023;-43
2024/03/17 02:45:51;;;;;;;4.72;3.10;;;;;;;;;;2064668;28;20109;-44
2024/03/17 02:46:52;;;;;;;4.60;3.05;;;;;;;;;;2064177;28;20386;-44
2024/03/17 02:47:54;;;;;;;3.80;2.83;;;;;;;;;;2064602;28;20101;-44
2024/03/17 02:48:56;;;;;;;6.25;3.13;;;;;;;;;;2063944;28;20041;-44
2024/03/17 02:49:57;;;;;;;4.57;3.03;;;;;;;;;;2062965;28;20161;-44
2024/03/17 02:50:59;;;;;;;4.00;2.97;;;;;;;;;;2064133;28;20049;-45
2024/03/17 02:52:01;;;;;;;3.97;2.92;;;;;;;;;;2064216;28;20035;-44
2024/03/17 02:53:03;;;;;;;5.72;2.90;;;;;;;;;;2063989;28;20019;-44
2024/03/17 02:54:05;;;;;;;3.28;2.60;;;;;;;;;;2064321;28;20030;-44
2024/03/17 02:55:07;;;;;;;4.00;2.70;;;;;;;;;;2064208;28;20030;-46
2024/03/17 02:56:08;;;;;;;3.75;2.55;;;;;;;;;;2063756;28;20481;-44
2024/03/17 02:57:10;;;;;;;6.25;3.20;;;;;;;;;;2063962;28;20088;-44
2024/03/17 02:58:11;;;;;;;6.70;2.60;;;;;;;;;;2065950;28;20056;-44
2024/03/17 02:59:12;;;;;;;5.10;3.40;;;;;;;;;;2060901;28;20035;-44
2024/03/17 03:00:14;;;;;;;5.90;3.03;;;;;;;;;;2064318;28;20117;-45
2024/03/17 03:01:16;;;;;;;6.18;2.88;;;;;;;;;;2063287;28;20444;-44
2024/03/17 03:02:17;;;;;;;4.07;2.90;;;;;;;;;;2063884;28;20031;-44
2024/03/17 03:03:19;;;;;;;5.07;3.05;;;;;;;;;;2064181;28;20070;-44
2024/03/17 03:04:21;;;;;;;5.55;3.08;;;;;;;;;;2064350;28;20683;-43
2024/03/17 03:05:22;;;;;;;3.30;2.67;;;;;;;;;;2063869;28;20537;-43
2024/03/17 03:06:25;;;;;;;5.28;2.88;;;;;;;;;;2063852;28;20521;-44
2024/03/17 03:07:27;;;;;;;4.10;3.20;;;;;;;;;;2064376;28;20046;-44
2024/03/17 03:08:28;;;;;;;4.88;3.08;;;;;;;;;;2063757;28;20022;-44
2024/03/17 03:09:33;;;;;;;4.43;3.13;;;;;;;;;;2062407;28;20018;-44
2024/03/17 03:10:35;;;;;;;3.80;2.88;;;;;;;;;;2059146;28;20019;-44
2024/03/17 03:11:36;;;;;;;5.45;3.22;;;;;;;;;;2061375;28;20101;-44
2024/03/17 03:12:37;;;;;;;3.42;2.80;;;;;;;;;;2063626;28;20015;-45
2024/03/17 03:13:39;;;;;;;4.28;2.88;;;;;;;;;;2063737;28;20027;-44
2024/03/17 03:14:41;;;;;;;3.63;2.67;;;;;;;;;;2055592;28;20085;-45
2024/03/17 03:15:43;;;;;;;5.85;3.30;;;;;;;;;;2063761;28;20445;-45
2024/03/17 03:16:44;;;;;;;5.10;3.28;;;;;;;;;;2063685;28;20027;-44
2024/03/17 03:17:46;;;;;;;4.88;3.38;;;;;;;;;;2064287;28;20023;-42
2024/03/17 03:18:47;;;;;;;4.88;3.03;;;;;;;;;;2059958;28;20534;-44
2024/03/17 03:19:48;;;;;;;5.20;2.92;;;;;;;;;;2064499;28;20030;-45
2024/03/17 03:20:53;;;;;;;3.40;2.58;;;;;;;;;;2064358;28;20358;-45
2024/03/17 03:21:54;;;;;;;4.63;2.97;;;;;;;;;;2063773;28;20006;-45
2024/03/17 03:22:57;;;;;;;4.20;2.63;;;;;;;;;;2064552;28;20477;-45
2024/03/17 03:23:58;;;;;;;3.97;2.80;;;;;;;;;;2064164;28;20084;-44
2024/03/17 03:24:59;;;;;;;3.42;2.88;;;;;;;;;;2064427;28;20018;-44
2024/03/17 03:26:04;;;;;;;3.67;3.10;;;;;;;;;;2063818;28;20133;-44
2024/03/17 03:27:09;;;;;;;4.75;3.20;;;;;;;;;;2063681;28;20034;-44
2024/03/17 03:28:10;;;;;;;5.95;3.13;;;;;;;;;;2063836;28;20019;-44
2024/03/17 03:29:12;;;;;;;4.43;2.90;;;;;;;;;;2064208;28;20097;-44
2024/03/17 03:30:15;;;;;;;5.07;2.70;;;;;;;;;;2064402;28;20136;-44
2024/03/17 03:31:17;;;;;;;4.28;2.60;;;;;;;;;;2063590;28;20081;-43
2024/03/17 03:32:18;;;;;;;4.43;2.80;;;;;;;;;;2060380;28;20026;-43
2024/03/17 03:33:20;;;;;;;3.75;2.70;;;;;;;;;;2065137;28;20374;-44
2024/03/17 03:34:24;;;;;;;4.55;2.80;;;;;;;;;;2064935;28;20086;-44
2024/03/17 03:35:28;;;;;;;4.25;2.88;;;;;;;;;;2065672;28;20014;-44
2024/03/17 03:36:29;;;;;;;3.97;2.70;;;;;;;;;;2065919;28;20496;-44
2024/03/17 03:37:31;;;;;;;4.00;3.40;;;;;;;;;;2065603;28;20036;-44
2024/03/17 03:38:33;;;;;;;7.53;3.72;;;;;;;;;;2061141;28;20019;-45
2024/03/17 03:39:36;;;;;;;4.65;3.25;;;;;;;;;;2065297;28;20030;-45
2024/03/17 03:40:37;;;;;;;4.65;3.33;;;;;;;;;;2065661;28;20030;-44
2024/03/17 03:41:39;;;;;;;4.85;2.92;;;;;;;;;;2065359;28;20771;-44
2024/03/17 03:42:40;;;;;;;3.95;3.20;;;;;;;;;;2065529;28;20501;-44
2024/03/17 03:43:41;;;;;;;3.53;2.72;;;;;;;;;;2065326;28;20081;-44
2024/03/17 03:44:43;;;;;;;4.60;3.13;;;;;;;;;;2064904;28;20045;-44
2024/03/17 03:45:45;;;;;;;4.20;2.78;;;;;;;;;;2058605;28;20027;-44
2024/03/17 03:46:46;;;;;;;4.18;2.80;;;;;;;;;;2064748;28;20481;-43
2024/03/17 03:47:48;;;;;;;4.35;3.15;;;;;;;;;;2065134;28;20552;-46
2024/03/17 03:48:49;;;;;;;6.15;3.17;;;;;;;;;;2065028;28;20026;-44
2024/03/17 03:49:50;;;;;;;6.60;3.33;;;;;;;;;;2065037;28;20022;-43
2024/03/17 03:50:52;;;;;;;6.05;3.05;;;;;;;;;;2065699;28;20030;-45
2024/03/17 03:51:54;;;;;;;5.65;3.33;;;;;;;;;;2065459;28;20519;-45
2024/03/17 03:52:55;;;;;;;5.18;3.08;;;;;;;;;;2064658;28;20398;-44
2024/03/17 03:53:56;;;;;;;3.80;3.00;;;;;;;;;;2064846;28;20076;-45
2024/03/17 03:54:58;;;;;;;4.15;2.90;;;;;;;;;;2065615;28;20553;-44
2024/03/17 03:56:01;;;;;;;4.50;2.70;;;;;;;;;;2065389;28;20033;-45
2024/03/17 03:57:02;;;;;;;4.13;3.08;;;;;;;;;;2065721;28;20109;-43
2024/03/17 03:58:04;;;;;;;3.53;2.63;;;;;;;;;;2063779;28;20149;-44
2024/03/17 03:59:05;;;;;;;6.38;3.17;;;;;;;;;;2064666;28;20050;-43
2024/03/17 04:00:13;;;;;;;5.80;3.25;;;;;;;;;;2065107;28;20099;-44
2024/03/17 04:01:21;;;;;;;5.43;3.40;;;;;;;;;;2064847;28;20113;-43
2024/03/17 04:02:23;;;;;;;5.57;3.50;;;;;;;;;;2059644;28;20072;-44
2024/03/17 04:03:24;;;;;;;3.80;2.63;;;;;;;;;;2065511;28;20401;-45
2024/03/17 04:04:25;;;;;;;5.70;2.92;;;;;;;;;;2065365;28;20022;-44
2024/03/17 04:05:26;;;;;;;4.05;2.95;;;;;;;;;;2064375;28;20577;-44
2024/03/17 04:06:28;;;;;;;4.10;2.90;;;;;;;;;;2064990;28;20030;-43
2024/03/17 04:07:29;;;;;;;4.03;3.20;;;;;;;;;;2065379;28;20023;-44
2024/03/17 04:08:31;;;;;;;5.43;3.28;;;;;;;;;;2065557;28;20022;-43
2024/03/17 04:09:33;;;;;;;4.45;3.03;;;;;;;;;;2057536;28;20381;-43
2024/03/17 04:10:35;;;;;;;4.57;3.30;;;;;;;;;;2059976;28;20485;-44
2024/03/17 04:11:36;;;;;;;5.45;3.33;;;;;;;;;;2064117;28;20038;-43
2024/03/17 04:12:38;;;;;;;4.97;3.20;;;;;;;;;;2060909;28;20099;-43
2024/03/17 04:13:39;;;;;;;6.43;2.95;;;;;;;;;;2059258;28;20045;-45
2024/03/17 04:14:40;;;;;;;3.72;3.00;;;;;;;;;;2065525;28;20504;-44
2024/03/17 04:15:43;;;;;;;5.22;3.58;;;;;;;;;;2064276;28;20018;-44
2024/03/17 04:16:45;;;;;;;4.22;2.55;;;;;;;;;;2064615;28;20559;-43
2024/03/17 04:17:47;;;;;;;4.90;3.33;;;;;;;;;;2063932;28;20389;-43
2024/03/17 04:18:48;;;;;;;6.03;3.40;;;;;;;;;;2064253;28;20050;-43
2024/03/17 04:19:50;;;;;;;3.90;2.88;;;;;;;;;;2064841;28;20030;-43
2024/03/17 04:20:54;;;;;;;4.93;2.60;;;;;;;;;;2064529;28;20069;-43
2024/03/17 04:21:56;;;;;;;4.88;2.90;;;;;;;;;;2065388;28;20022;-44
2024/03/17 04:22:58;;;;;;;4.32;2.88;;;;;;;;;;2065524;28;20077;-43
2024/03/17 04:23:59;;;;;;;4.07;2.85;;;;;;;;;;2065277;28;20116;-43
2024/03/17 04:25:00;;;;;;;5.05;3.00;;;;;;;;;;2063341;28;20025;-44
2024/03/17 04:26:03;;;;;;;4.30;2.78;;;;;;;;;;2058044;28;20097;-43
2024/03/17 04:27:04;;;;;;;3.53;2.50;;;;;;;;;;2061304;28;20389;-43
2024/03/17 04:28:06;;;;;;;3.88;2.88;;;;;;;;;;2064864;28;20038;-43
2024/03/17 04:29:07;;;;;;;3.53;2.85;;;;;;;;;;2065290;28;20145;-43
2024/03/17 04:30:08;;;;;;;4.47;2.72;;;;;;;;;;2065326;28;20025;-42
2024/03/17 04:31:11;;;;;;;4.38;2.83;;;;;;;;;;2065515;28;20034;-43
2024/03/17 04:32:12;;;;;;;3.83;2.72;;;;;;;;;;2065399;28;20041;-43
2024/03/17 04:33:14;;;;;;;5.82;3.10;;;;;;;;;;2065352;28;20017;-43
2024/03/17 04:34:16;;;;;;;4.47;2.85;;;;;;;;;;2065493;28;20156;-43
2024/03/17 04:35:17;;;;;;;4.53;3.03;;;;;;;;;;2065442;28;20032;-44
2024/03/17 04:36:18;;;;;;;3.72;2.47;;;;;;;;;;2058725;28;20094;-43
2024/03/17 04:37:20;;;;;;;3.05;2.45;;;;;;;;;;2065517;28;20034;-43
2024/03/17 04:38:21;;;;;;;3.25;2.40;;;;;;;;;;2062612;28;20053;-43
2024/03/17 04:39:23;;;;;;;4.65;2.72;;;;;;;;;;2065508;28;20065;-42
2024/03/17 04:40:24;;;;;;;3.55;2.60;;;;;;;;;;2057539;28;20101;-43
2024/03/17 04:41:25;;;;;;;4.40;2.92;;;;;;;;;;2059966;28;20077;-43
2024/03/17 04:42:26;;;;;;;4.15;2.75;;;;;;;;;;2065456;28;20018;-43
2024/03/17 04:43:28;;;;;;;3.83;2.70;;;;;;;;;;2065045;28;20401;-43
2024/03/17 04:44:29;;;;;;;4.10;2.72;;;;;;;;;;2064764;28;20023;-43
2024/03/17 04:45:30;;;;;;;4.45;2.67;;;;;;;;;;2065091;28;20019;-43
2024/03/17 04:46:32;;;;;;;4.55;2.60;;;;;;;;;;2065201;28;20041;-44
2024/03/17 04:47:33;;;;;;;4.80;3.05;;;;;;;;;;2065127;28;20128;-49
2024/03/17 04:48:34;;;;;;;4.32;2.72;;;;;;;;;;2065388;28;20104;-48
2024/03/17 04:49:36;;;;;;;5.13;3.10;;;;;;;;;;2064392;28;20031;-48
2024/03/17 04:50:37;;;;;;;3.70;2.72;;;;;;;;;;2065090;28;20089;-49
2024/03/17 04:51:39;;;;;;;3.55;2.70;;;;;;;;;;2064699;28;20531;-44
2024/03/17 04:52:40;;;;;;;3.33;2.60;;;;;;;;;;2065188;28;20216;-44
2024/03/17 04:53:42;;;;;;;5.25;2.83;;;;;;;;;;2065242;28;20034;-44
2024/03/17 04:54:43;;;;;;;3.78;2.97;;;;;;;;;;2064765;28;20054;-44
2024/03/17 04:55:46;;;;;;;3.95;2.53;;;;;;;;;;2064874;28;20042;-44
2024/03/17 04:56:47;;;;;;;3.30;2.50;;;;;;;;;;2065336;28;20026;-44
2024/03/17 04:57:49;;;;;;;4.20;2.72;;;;;;;;;;2064741;28;20050;-44
2024/03/17 04:58:50;;;;;;;5.28;2.80;;;;;;;;;;2058063;28;20107;-43
2024/03/17 04:59:52;;;;;;;4.22;2.42;;;;;;;;;;2065096;28;20053;-44
2024/03/17 05:00:53;;;;;;;3.95;2.50;;;;;;;;;;2061391;28;20031;-44
2024/03/17 05:01:55;;;;;;;3.58;2.55;;;;;;;;;;2057240;28;20031;-44
2024/03/17 05:02:57;;;;;;;4.13;2.33;;;;;;;;;;2063649;28;20061;-44
2024/03/17 05:03:58;;;;;;;3.40;2.60;;;;;;;;;;2064355;28;20022;-44
2024/03/17 05:04:59;;;;;;;3.45;2.60;;;;;;;;;;2065339;28;20551;-49
2024/03/17 05:06:04;;;;;;;5.03;2.67;;;;;;;;;;2064846;28;20022;-48
2024/03/17 05:07:05;;;;;;;3.78;2.75;;;;;;;;;;2065153;28;20152;-49
2024/03/17 05:08:07;;;;;;;3.63;2.63;;;;;;;;;;2065332;28;20026;-48
2024/03/17 05:09:08;;;;;;;4.18;2.65;;;;;;;;;;2064604;28;20006;-48
2024/03/17 05:10:10;;;;;;;5.55;3.05;;;;;;;;;;2064606;28;20065;-49
2024/03/17 05:11:14;;;;;;;5.90;2.85;;;;;;;;;;2062091;28;20026;-50
2024/03/17 05:12:15;;;;;;;5.78;2.95;;;;;;;;;;2060406;28;20049;-50
2024/03/17 05:13:16;;;;;;;3.70;2.53;;;;;;;;;;2065034;28;20377;-49
2024/03/17 05:14:19;;;;;;;3.58;2.40;;;;;;;;;;2064745;28;20102;-44
2024/03/17 05:15:20;;;;;;;4.00;2.80;;;;;;;;;;2065157;28;20014;-43
2024/03/17 05:16:22;;;;;;;3.58;2.40;;;;;;;;;;2064746;28;20045;-45
2024/03/17 05:17:24;;;;;;;4.78;3.03;;;;;;;;;;2062723;28;20019;-46
2024/03/17 05:18:28;;;;;;;5.15;2.67;;;;;;;;;;2057271;28;20482;-45
2024/03/17 05:19:29;;;;;;;4.47;3.03;;;;;;;;;;2065301;28;20034;-43
2024/03/17 05:20:30;;;;;;;4.07;2.55;;;;;;;;;;2065057;28;20033;-43
2024/03/17 05:21:32;;;;;;;4.10;2.58;;;;;;;;;;2063456;28;20022;-43
2024/03/17 05:22:33;;;;;;;4.53;3.00;;;;;;;;;;2064456;28;20441;-43
2024/03/17 05:23:35;;;;;;;3.70;3.03;;;;;;;;;;2064924;28;20030;-43
2024/03/17 05:24:37;;;;;;;3.63;2.45;;;;;;;;;;2064456;28;20027;-45
2024/03/17 05:25:38;;;;;;;3.95;2.80;;;;;;;;;;2064022;28;20383;-44
2024/03/17 05:26:39;;;;;;;4.38;2.65;;;;;;;;;;2059331;28;20173;-43
2024/03/17 05:27:41;;;;;;;4.32;2.85;;;;;;;;;;2064611;28;20575;-44
2024/03/17 05:28:42;;;;;;;9.10;2.70;;;;;;;;;;2064156;28;20029;-44
2024/03/17 05:29:44;;;;;;;4.50;2.22;;;;;;;;;;2064952;28;20030;-43
2024/03/17 05:30:46;;;;;;;3.75;2.55;;;;;;;;;;2065183;28;20018;-44
2024/03/17 05:31:47;;;;;;;4.10;2.67;;;;;;;;;;2063878;28;20026;-44
2024/03/17 05:32:48;;;;;;;4.35;2.72;;;;;;;;;;2065065;28;20018;-44
2024/03/17 05:33:52;;;;;;;5.15;3.33;;;;;;;;;;2058661;28;20086;-44
2024/03/17 05:34:53;;;;;;;5.05;2.95;;;;;;;;;;2059944;28;20549;-44
2024/03/17 05:35:54;;;;;;;3.35;2.20;;;;;;;;;;2063876;28;20026;-44
2024/03/17 05:36:55;;;;;;;3.38;2.40;;;;;;;;;;2064173;28;20018;-45
2024/03/17 05:37:57;;;;;;;4.43;2.65;;;;;;;;;;2064784;28;20022;-43
2024/03/17 05:38:59;;;;;;;4.25;2.70;;;;;;;;;;2064955;28;20037;-44
2024/03/17 05:40:00;;;;;;;4.68;2.65;;;;;;;;;;2059447;28;20452;-43
2024/03/17 05:41:05;;;;;;;4.55;2.63;;;;;;;;;;2057874;28;20097;-43
2024/03/17 05:42:07;;;;;;;3.78;2.63;;;;;;;;;;2065054;28;20030;-44
2024/03/17 05:43:08;;;;;;;3.90;2.70;;;;;;;;;;2064904;28;20362;-44
2024/03/17 05:44:10;;;;;;;7.20;2.58;;;;;;;;;;2064883;28;20436;-44
2024/03/17 05:45:11;;;;;;;5.38;3.08;;;;;;;;;;2064740;28;20023;-44
2024/03/17 05:46:15;;;;;;;3.75;2.72;;;;;;;;;;2063650;28;20041;-43
2024/03/17 05:47:18;;;;;;;5.80;2.60;;;;;;;;;;2065089;28;20053;-43
2024/03/17 05:48:20;;;;;;;5.72;2.80;;;;;;;;;;2064947;28;20030;-43
2024/03/17 05:49:21;;;;;;;4.85;2.70;;;;;;;;;;2064655;28;20030;-44
2024/03/17 05:50:22;;;;;;;5.30;2.47;;;;;;;;;;2064899;28;20029;-44
2024/03/17 05:51:27;;;;;;;4.43;2.63;;;;;;;;;;2064680;28;20061;-43
2024/03/17 05:52:28;;;;;;;5.07;3.22;;;;;;;;;;2064357;28;20022;-43
2024/03/17 05:53:31;;;;;;;3.95;2.65;;;;;;;;;;2062004;28;20030;-43
2024/03/17 05:54:34;;;;;;;3.40;2.67;;;;;;;;;;2059907;28;20063;-44
2024/03/17 05:55:39;;;;;;;4.47;2.40;;;;;;;;;;2057339;28;20053;-44
2024/03/17 05:56:40;;;;;;;4.72;2.55;;;;;;;;;;2064005;28;20508;-44
2024/03/17 05:57:42;;;;;;;3.17;2.25;;;;;;;;;;2064062;28;20030;-44
2024/03/17 05:58:43;;;;;;;4.43;2.67;;;;;;;;;;2058382;28;20421;-44
2024/03/17 05:59:45;;;;;;;4.82;2.72;;;;;;;;;;2064786;28;20018;-43
2024/03/17 06:00:46;;;;;;;3.33;2.65;;;;;;;;;;2064678;28;20117;-44
2024/03/17 06:01:47;;;;;;;5.93;2.70;;;;;;;;;;2064931;28;20038;-44
2024/03/17 06:02:49;;;;;;;3.38;2.60;;;;;;;;;;2064563;28;20018;-45
2024/03/17 06:03:52;;;;;;;4.05;2.83;;;;;;;;;;2064588;28;20142;-43
2024/03/17 06:04:53;;;;;;;3.10;2.40;;;;;;;;;;2060978;28;20466;-44
2024/03/17 06:05:55;;;;;;;6.28;2.80;;;;;;;;;;2057265;28;20074;-43
2024/03/17 06:06:56;;;;;;;3.97;2.55;;;;;;;;;;2057707;28;20493;-44
2024/03/17 06:07:58;;;;;;;4.20;2.78;;;;;;;;;;2064768;28;20497;-44
2024/03/17 06:08:59;;;;;;;4.22;2.90;;;;;;;;;;2060883;28;20019;-44
2024/03/17 06:10:00;;;;;;;3.50;2.60;;;;;;;;;;2056626;28;20093;-43
2024/03/17 06:11:02;;;;;;;5.18;2.60;;;;;;;;;;2063431;28;20029;-42